sensor_id;sensor_type;location;lat;lon;timestamp;pressure;altitude;pressure_sealevel;temperature;humidity
24746;BME280;12845;52.042;6.838;2022-12-18T00:01:57;65911.47;;;-8.00;100.00
24746;BME280;12845;52.042;6.838;2022-12-18T00:04:25;65906.31;;;-8.00;100.00
24746;BME280;12845;52.042;6.838;2022-12-18T00:06:51;65897.97;;;-8.08;100.00
24746;BME280;12845;52.042;6.838;2022-12-18T00:09:17;65889.59;;;-8.15;100.00
24746;BME280;12845;52.042;6.838;2022-12-18T00:11:42;65887.13;;;-8.20;100.00
24746;BME280;12845;52.042;6.838;2022-12-18T00:14:09;65887.72;;;-8.20;100.00
24746;BME280;12845;52.042;6.838;2022-12-18T00:16:36;65889.38;;;-8.18;100.00
24746;BME280;12845;52.042;6.838;2022-12-18T00:19:02;65892.72;;;-8.15;100.00
24746;BME280;12845;52.042;6.838;2022-12-18T00:21:29;65892.72;;;-8.15;100.00
24746;BME280;12845;52.042;6.838;2022-12-18T00:23:56;65894.41;;;-8.13;100.00
24746;BME280;12845;52.042;6.838;2022-12-18T00:26:24;65899.41;;;-8.09;100.00
24746;BME280;12845;52.042;6.838;2022-12-18T00:28:50;65886.38;;;-8.23;100.00
24746;BME280;12845;52.042;6.838;2022-12-18T00:31:19;65868.38;;;-8.35;100.00
24746;BME280;12845;52.042;6.838;2022-12-18T00:33:45;65860.25;;;-8.40;100.00
24746;BME280;12845;52.042;6.838;2022-12-18T00:36:14;65869.31;;;-8.36;100.00
24746;BME280;12845;52.042;6.838;2022-12-18T00:38:40;65870.06;;;-8.33;100.00
24746;BME280;12845;52.042;6.838;2022-12-18T00:41:07;65871.88;;;-8.36;100.00
24746;BME280;12845;52.042;6.838;2022-12-18T00:43:32;65865.97;;;-8.39;100.00
24746;BME280;12845;52.042;6.838;2022-12-18T00:45:57;65862.28;;;-8.41;100.00
24746;BME280;12845;52.042;6.838;2022-12-18T00:48:23;65857.81;;;-8.45;100.00
24746;BME280;12845;52.042;6.838;2022-12-18T00:50:49;65843.69;;;-8.60;100.00
24746;BME280;12845;52.042;6.838;2022-12-18T00:53:14;65838.66;;;-8.65;100.00
24746;BME280;12845;52.042;6.838;2022-12-18T00:55:40;65843.88;;;-8.57;100.00
24746;BME280;12845;52.042;6.838;2022-12-18T00:58:06;65841.78;;;-8.64;100.00
24746;BME280;12845;52.042;6.838;2022-12-18T01:00:31;65843.69;;;-8.60;100.00
24746;BME280;12845;52.042;6.838;2022-12-18T01:02:57;65830.28;;;-8.72;100.00
24746;BME280;12845;52.042;6.838;2022-12-18T01:05:22;65833.63;;;-8.69;100.00
24746;BME280;12845;52.042;6.838;2022-12-18T01:07:47;65830.28;;;-8.72;100.00
24746;BME280;12845;52.042;6.838;2022-12-18T01:10:13;65829.31;;;-8.78;100.00
24746;BME280;12845;52.042;6.838;2022-12-18T01:12:38;65823.59;;;-8.78;100.00
24746;BME280;12845;52.042;6.838;2022-12-18T01:15:05;65819.69;;;-8.82;100.00
24746;BME280;12845;52.042;6.838;2022-12-18T01:17:31;65820.25;;;-8.81;100.00
24746;BME280;12845;52.042;6.838;2022-12-18T01:19:56;65821.00;;;-8.78;100.00
24746;BME280;12845;52.042;6.838;2022-12-18T01:22:22;65828.63;;;-8.74;100.00
24746;BME280;12845;52.042;6.838;2022-12-18T01:24:47;65830.84;;;-8.72;100.00
24746;BME280;12845;52.042;6.838;2022-12-18T01:27:13;65821.34;;;-8.80;100.00
24746;BME280;12845;52.042;6.838;2022-12-18T01:29:38;65817.13;;;-8.82;100.00
24746;BME280;12845;52.042;6.838;2022-12-18T01:32:04;65820.81;;;-8.81;100.00
24746;BME280;12845;52.042;6.838;2022-12-18T01:34:29;65820.13;;;-8.77;100.00
24746;BME280;12845;52.042;6.838;2022-12-18T01:36:55;65825.47;;;-8.74;100.00
24746;BME280;12845;52.042;6.838;2022-12-18T01:39:20;65834.88;;;-8.73;100.00
24746;BME280;12845;52.042;6.838;2022-12-18T01:41:46;65838.44;;;-8.67;100.00
24746;BME280;12845;52.042;6.838;2022-12-18T01:45:00;65847.34;;;-8.59;100.00
24746;BME280;12845;52.042;6.838;2022-12-18T01:47:45;65844.78;;;-8.59;100.00
24746;BME280;12845;52.042;6.838;2022-12-18T01:50:24;65848.47;;;-8.58;100.00
24746;BME280;12845;52.042;6.838;2022-12-18T01:52:58;65852.03;;;-8.52;100.00
24746;BME280;12845;52.042;6.838;2022-12-18T01:55:26;65846.66;;;-8.55;100.00
24746;BME280;12845;52.042;6.838;2022-12-18T01:57:55;65848.34;;;-8.53;100.00
24746;BME280;12845;52.042;6.838;2022-12-18T02:00:22;65853.00;;;-8.47;100.00
24746;BME280;12845;52.042;6.838;2022-12-18T02:02:48;65864.84;;;-8.41;100.00
24746;BME280;12845;52.042;6.838;2022-12-18T02:05:23;65848.53;;;-8.51;100.00
24746;BME280;12845;52.042;6.838;2022-12-18T02:11:00;65849.03;;;-8.57;100.00
24746;BME280;12845;52.042;6.838;2022-12-18T02:13:45;65853.16;;;-8.51;100.00
24746;BME280;12845;52.042;6.838;2022-12-18T02:19:00;65845.00;;;-8.56;100.00
24746;BME280;12845;52.042;6.838;2022-12-18T02:24:24;65842.53;;;-8.61;100.00
24746;BME280;12845;52.042;6.838;2022-12-18T02:26:57;65847.03;;;-8.57;100.00
24746;BME280;12845;52.042;6.838;2022-12-18T02:29:39;65861.28;;;-8.46;100.00
24746;BME280;12845;52.042;6.838;2022-12-18T02:32:11;65867.09;;;-8.38;100.00
24746;BME280;12845;52.042;6.838;2022-12-18T02:34:40;65864.13;;;-8.36;100.00
24746;BME280;12845;52.042;6.838;2022-12-18T02:37:09;65862.28;;;-8.41;100.00
24746;BME280;12845;52.042;6.838;2022-12-18T02:39:39;65853.72;;;-8.51;100.00
24746;BME280;12845;52.042;6.838;2022-12-18T02:42:05;65858.50;;;-8.49;100.00
24746;BME280;12845;52.042;6.838;2022-12-18T02:44:34;65853.72;;;-8.51;100.00
24746;BME280;12845;52.042;6.838;2022-12-18T02:47:00;65846.31;;;-8.53;100.00
24746;BME280;12845;52.042;6.838;2022-12-18T02:54:41;65846.25;;;-8.60;100.00
24746;BME280;12845;52.042;6.838;2022-12-18T02:57:24;65846.25;;;-8.60;100.00
24746;BME280;12845;52.042;6.838;2022-12-18T03:00:03;65838.09;;;-8.65;100.00
24746;BME280;12845;52.042;6.838;2022-12-18T03:02:38;65836.97;;;-8.66;100.00
24746;BME280;12845;52.042;6.838;2022-12-18T03:05:35;65842.19;;;-8.59;100.00
24746;BME280;12845;52.042;6.838;2022-12-18T03:08:03;65845.13;;;-8.61;100.00
24746;BME280;12845;52.042;6.838;2022-12-18T03:10:33;65835.31;;;-8.68;100.00
24746;BME280;12845;52.042;6.838;2022-12-18T03:13:15;65831.03;;;-8.69;100.00
24746;BME280;12845;52.042;6.838;2022-12-18T03:15:48;65832.16;;;-8.68;100.00
24746;BME280;12845;52.042;6.838;2022-12-18T03:18:18;65833.28;;;-8.67;100.00
24746;BME280;12845;52.042;6.838;2022-12-18T03:20:47;65837.53;;;-8.66;100.00
24746;BME280;12845;52.042;6.838;2022-12-18T03:23:20;65835.84;;;-8.67;100.00
24746;BME280;12845;52.042;6.838;2022-12-18T03:25:48;65825.66;;;-8.72;100.00
24746;BME280;12845;52.042;6.838;2022-12-18T03:28:20;65811.31;;;-8.90;100.00
24746;BME280;12845;52.042;6.838;2022-12-18T03:30:49;65799.63;;;-9.00;100.00
24746;BME280;12845;52.042;6.838;2022-12-18T03:35:50;65806.31;;;-8.94;100.00
24746;BME280;12845;52.042;6.838;2022-12-18T03:38:15;65795.16;;;-9.04;100.00
24746;BME280;12845;52.042;6.838;2022-12-18T03:49:27;65782.47;;;-9.21;100.00
24746;BME280;12845;52.042;6.838;2022-12-18T03:52:03;65765.63;;;-9.32;100.00
24746;BME280;12845;52.042;6.838;2022-12-18T03:54:31;65768.63;;;-9.26;100.00
24746;BME280;12845;52.042;6.838;2022-12-18T03:57:02;65769.53;;;-9.28;100.00
24746;BME280;12845;52.042;6.838;2022-12-18T03:59:30;65770.31;;;-9.25;100.00
24746;BME280;12845;52.042;6.838;2022-12-18T04:01:57;65774.41;;;-9.19;100.00
24746;BME280;12845;52.042;6.838;2022-12-18T04:04:26;65771.63;;;-9.21;100.00
24746;BME280;12845;52.042;6.838;2022-12-18T04:06:53;65766.41;;;-9.28;100.00
24746;BME280;12845;52.042;6.838;2022-12-18T04:09:19;65774.13;;;-9.28;100.00
24746;BME280;12845;52.042;6.838;2022-12-18T04:11:46;65778.59;;;-9.24;100.00
24746;BME280;12845;52.042;6.838;2022-12-18T04:14:12;65787.94;;;-9.11;100.00
24746;BME280;12845;52.042;6.838;2022-12-18T04:16:38;65784.22;;;-9.12;100.00
24746;BME280;12845;52.042;6.838;2022-12-18T04:19:03;65777.91;;;-9.20;100.00
24746;BME280;12845;52.042;6.838;2022-12-18T04:21:29;65773.97;;;-9.24;100.00
24746;BME280;12845;52.042;6.838;2022-12-18T04:23:55;65776.78;;;-9.21;100.00
24746;BME280;12845;52.042;6.838;2022-12-18T04:26:20;65773.59;;;-9.29;100.00
24746;BME280;12845;52.042;6.838;2022-12-18T04:28:45;65777.13;;;-9.23;100.00
24746;BME280;12845;52.042;6.838;2022-12-18T04:31:11;65796.63;;;-9.05;100.00
24746;BME280;12845;52.042;6.838;2022-12-18T04:33:36;65794.06;;;-9.05;100.00
24746;BME280;12845;52.042;6.838;2022-12-18T04:36:02;65794.94;;;-9.07;100.00
24746;BME280;12845;52.042;6.838;2022-12-18T04:38:27;65782.34;;;-9.16;100.00
24746;BME280;12845;52.042;6.838;2022-12-18T04:40:53;65789.03;;;-9.10;100.00
24746;BME280;12845;52.042;6.838;2022-12-18T04:43:18;65791.81;;;-9.07;100.00
24746;BME280;12845;52.042;6.838;2022-12-18T04:45:44;65791.81;;;-9.07;100.00
24746;BME280;12845;52.042;6.838;2022-12-18T04:48:09;65785.34;;;-9.11;100.00
24746;BME280;12845;52.042;6.838;2022-12-18T04:50:34;65786.13;;;-9.08;100.00
24746;BME280;12845;52.042;6.838;2022-12-18T04:53:03;65789.03;;;-9.10;100.00
24746;BME280;12845;52.042;6.838;2022-12-18T04:55:31;65788.69;;;-9.08;100.00
24746;BME280;12845;52.042;6.838;2022-12-18T04:57:56;65798.72;;;-8.99;100.00
24746;BME280;12845;52.042;6.838;2022-12-18T05:00:22;65810.00;;;-8.93;100.00
24746;BME280;12845;52.042;6.838;2022-12-18T05:02:47;65810.56;;;-8.93;100.00
24746;BME280;12845;52.042;6.838;2022-12-18T05:05:13;65812.44;;;-8.89;100.00
24746;BME280;12845;52.042;6.838;2022-12-18T05:07:38;65813.78;;;-8.85;100.00
24746;BME280;12845;52.042;6.838;2022-12-18T05:10:04;65828.06;;;-8.74;100.00
24746;BME280;12845;52.042;6.838;2022-12-18T05:12:30;65838.66;;;-8.65;100.00
24746;BME280;12845;52.042;6.838;2022-12-18T05:14:56;65836.63;;;-8.64;100.00
24746;BME280;12845;52.042;6.838;2022-12-18T05:17:21;65853.72;;;-8.51;100.00
24746;BME280;12845;52.042;6.838;2022-12-18T05:19:47;65860.75;;;-8.47;100.00
24746;BME280;12845;52.042;6.838;2022-12-18T05:22:12;65855.38;;;-8.49;100.00
24746;BME280;12845;52.042;6.838;2022-12-18T05:24:38;65853.72;;;-8.51;100.00
24746;BME280;12845;52.042;6.838;2022-12-18T05:27:03;65851.47;;;-8.53;100.00
24746;BME280;12845;52.042;6.838;2022-12-18T05:29:28;65848.88;;;-8.53;100.00
24746;BME280;12845;52.042;6.838;2022-12-18T05:31:54;65858.16;;;-8.47;100.00
24746;BME280;12845;52.042;6.838;2022-12-18T05:34:19;65857.06;;;-8.48;100.00
24746;BME280;12845;52.042;6.838;2022-12-18T05:36:45;65859.28;;;-8.46;100.00
24746;BME280;12845;52.042;6.838;2022-12-18T05:39:10;65862.63;;;-8.43;100.00
24746;BME280;12845;52.042;6.838;2022-12-18T05:41:35;65873.75;;;-8.32;100.00
24746;BME280;12845;52.042;6.838;2022-12-18T05:44:01;65886.94;;;-8.23;100.00
24746;BME280;12845;52.042;6.838;2022-12-18T05:46:26;65884.00;;;-8.21;100.00
24746;BME280;12845;52.042;6.838;2022-12-18T05:48:52;65900.88;;;-8.10;100.00
24746;BME280;12845;52.042;6.838;2022-12-18T05:51:19;65902.00;;;-8.09;100.00
24746;BME280;12845;52.042;6.838;2022-12-18T05:53:45;65907.56;;;-8.04;100.00
24746;BME280;12845;52.042;6.838;2022-12-18T05:56:13;65907.56;;;-8.04;100.00
24746;BME280;12845;52.042;6.838;2022-12-18T05:58:40;65904.66;;;-8.02;100.00
24746;BME280;12845;52.042;6.838;2022-12-18T06:01:08;65907.78;;;-8.01;100.00
24746;BME280;12845;52.042;6.838;2022-12-18T06:03:34;65911.69;;;-7.98;100.00
24746;BME280;12845;52.042;6.838;2022-12-18T06:06:00;65882.34;;;-8.22;100.00
24746;BME280;12845;52.042;6.838;2022-12-18T06:08:25;65881.00;;;-8.26;100.00
24746;BME280;12845;52.042;6.838;2022-12-18T06:10:52;65881.56;;;-8.25;100.00
24746;BME280;12845;52.042;6.838;2022-12-18T06:13:20;65877.66;;;-8.29;100.00
24746;BME280;12845;52.042;6.838;2022-12-18T06:15:46;65887.91;;;-8.17;100.00
24746;BME280;12845;52.042;6.838;2022-12-18T06:18:12;65894.94;;;-8.13;100.00
24746;BME280;12845;52.042;6.838;2022-12-18T06:20:37;65888.47;;;-8.17;100.00
24746;BME280;12845;52.042;6.838;2022-12-18T06:23:07;65879.34;;;-8.27;100.00
24746;BME280;12845;52.042;6.838;2022-12-18T06:25:33;65866.34;;;-8.34;100.00
24746;BME280;12845;52.042;6.838;2022-12-18T06:27:58;65871.50;;;-8.34;100.00
24746;BME280;12845;52.042;6.838;2022-12-18T06:30:24;65868.16;;;-8.37;100.00
24746;BME280;12845;52.042;6.838;2022-12-18T06:32:49;65865.59;;;-8.37;100.00
24746;BME280;12845;52.042;6.838;2022-12-18T06:35:15;65864.28;;;-8.41;100.00
24746;BME280;12845;52.042;6.838;2022-12-18T06:37:40;65862.28;;;-8.41;100.00
24746;BME280;12845;52.042;6.838;2022-12-18T06:40:06;65868.94;;;-8.34;100.00
24746;BME280;12845;52.042;6.838;2022-12-18T06:42:32;65874.31;;;-8.32;100.00
24746;BME280;12845;52.042;6.838;2022-12-18T06:44:58;65879.34;;;-8.27;100.00
24746;BME280;12845;52.042;6.838;2022-12-18T06:47:23;65887.72;;;-8.20;100.00
24746;BME280;12845;52.042;6.838;2022-12-18T06:49:49;65887.00;;;-8.15;100.00
24746;BME280;12845;52.042;6.838;2022-12-18T06:52:14;65893.47;;;-8.12;100.00
24746;BME280;12845;52.042;6.838;2022-12-18T06:54:39;65890.13;;;-8.15;100.00
24746;BME280;12845;52.042;6.838;2022-12-18T06:57:05;65892.72;;;-8.15;100.00
24746;BME280;12845;52.042;6.838;2022-12-18T06:59:30;65892.16;;;-8.15;100.00
24746;BME280;12845;52.042;6.838;2022-12-18T07:01:56;65891.25;;;-8.14;100.00
24746;BME280;12845;52.042;6.838;2022-12-18T07:04:21;65893.13;;;-8.10;100.00
24746;BME280;12845;52.042;6.838;2022-12-18T07:06:46;65908.13;;;-8.03;100.00
24746;BME280;12845;52.042;6.838;2022-12-18T07:09:12;65903.16;;;-8.01;100.00
24746;BME280;12845;52.042;6.838;2022-12-18T07:11:37;65921.16;;;-7.89;100.00
24746;BME280;12845;52.042;6.838;2022-12-18T07:14:02;65923.28;;;-7.82;100.00
24746;BME280;12845;52.042;6.838;2022-12-18T07:16:28;65934.00;;;-7.77;100.00
24746;BME280;12845;52.042;6.838;2022-12-18T07:18:56;65947.03;;;-7.63;100.00
24746;BME280;12845;52.042;6.838;2022-12-18T07:21:22;65962.47;;;-7.51;100.00
24746;BME280;12845;52.042;6.838;2022-12-18T07:23:48;65956.53;;;-7.54;100.00
24746;BME280;12845;52.042;6.838;2022-12-18T07:26:15;65951.72;;;-7.56;100.00
24746;BME280;12845;52.042;6.838;2022-12-18T07:28:41;65965.81;;;-7.48;100.00
24746;BME280;12845;52.042;6.838;2022-12-18T07:33:34;65967.91;;;-7.41;100.00
24746;BME280;12845;52.042;6.838;2022-12-18T07:36:00;65977.19;;;-7.35;100.00
24746;BME280;12845;52.042;6.838;2022-12-18T07:38:26;65981.66;;;-7.31;100.00
24746;BME280;12845;52.042;6.838;2022-12-18T07:40:52;65982.78;;;-7.30;100.00
24746;BME280;12845;52.042;6.838;2022-12-18T07:43:17;65989.47;;;-7.24;100.00
24746;BME280;12845;52.042;6.838;2022-12-18T07:45:43;66004.34;;;-7.13;100.00
24746;BME280;12845;52.042;6.838;2022-12-18T07:48:08;66015.72;;;-7.00;100.00
24746;BME280;12845;52.042;6.838;2022-12-18T07:50:34;66021.31;;;-6.95;100.00
24746;BME280;12845;52.042;6.838;2022-12-18T07:52:59;66032.13;;;-6.83;100.00
24746;BME280;12845;52.042;6.838;2022-12-18T07:55:29;66046.56;;;-6.76;100.00
24746;BME280;12845;52.042;6.838;2022-12-18T07:57:55;66051.25;;;-6.70;100.00
24746;BME280;12845;52.042;6.838;2022-12-18T08:00:21;66050.00;;;-6.66;100.00
24746;BME280;12845;52.042;6.838;2022-12-18T08:02:46;66053.69;;;-6.65;100.00
24746;BME280;12845;52.042;6.838;2022-12-18T08:05:11;66057.63;;;-6.62;100.00
24746;BME280;12845;52.042;6.838;2022-12-18T08:07:38;66062.84;;;-6.54;100.00
24746;BME280;12845;52.042;6.838;2022-12-18T08:12:29;66073.25;;;-6.47;100.00
24746;BME280;12845;52.042;6.838;2022-12-18T08:14:54;66082.56;;;-6.41;100.00
24746;BME280;12845;52.042;6.838;2022-12-18T08:17:19;66086.09;;;-6.36;100.00
24746;BME280;12845;52.042;6.838;2022-12-18T08:19:45;66090.56;;;-6.31;100.00
24746;BME280;12845;52.042;6.838;2022-12-18T08:22:10;66092.81;;;-6.29;100.00
24746;BME280;12845;52.042;6.838;2022-12-18T08:24:35;66097.47;;;-6.23;100.00
24746;BME280;12845;52.042;6.838;2022-12-18T08:27:01;66104.53;;;-6.19;100.00
24746;BME280;12845;52.042;6.838;2022-12-18T08:29:26;66108.09;;;-6.13;100.00
24746;BME280;12845;52.042;6.838;2022-12-18T08:34:19;66122.63;;;-6.00;100.00
24746;BME280;12845;52.042;6.838;2022-12-18T08:36:44;66133.03;;;-5.93;100.00
24746;BME280;12845;52.042;6.838;2022-12-18T08:39:10;66140.66;;;-5.88;100.00
24746;BME280;12845;52.042;6.838;2022-12-18T08:41:35;66144.56;;;-5.84;100.00
24746;BME280;12845;52.042;6.838;2022-12-18T08:44:01;66145.31;;;-5.81;100.00
24746;BME280;12845;52.042;6.838;2022-12-18T08:46:45;66148.88;;;-5.76;100.00
24746;BME280;12845;52.042;6.838;2022-12-18T08:49:11;66151.69;;;-5.73;100.00
24746;BME280;12845;52.042;6.838;2022-12-18T08:51:37;66155.59;;;-5.70;100.00
24746;BME280;12845;52.042;6.838;2022-12-18T08:54:04;66163.22;;;-5.65;100.00
24746;BME280;12845;52.042;6.838;2022-12-18T08:56:30;66173.06;;;-5.58;100.00
24746;BME280;12845;52.042;6.838;2022-12-18T08:58:56;66174.97;;;-5.54;100.00
24746;BME280;12845;52.042;6.838;2022-12-18T09:01:22;66176.28;;;-5.51;100.00
24746;BME280;12845;52.042;6.838;2022-12-18T09:03:50;66186.13;;;-5.44;100.00
24746;BME280;12845;52.042;6.838;2022-12-18T09:06:17;66195.81;;;-5.40;100.00
24746;BME280;12845;52.042;6.838;2022-12-18T09:08:44;66202.19;;;-5.32;100.00
24746;BME280;12845;52.042;6.838;2022-12-18T09:11:23;66210.56;;;-5.24;100.00
24746;BME280;12845;52.042;6.838;2022-12-18T09:13:49;66218.03;;;-5.15;100.00
24746;BME280;12845;52.042;6.838;2022-12-18T09:16:15;66222.16;;;-5.09;100.00
24746;BME280;12845;52.042;6.838;2022-12-18T09:18:41;66229.97;;;-5.02;100.00
24746;BME280;12845;52.042;6.838;2022-12-18T09:21:13;66237.63;;;-4.97;100.00
24746;BME280;12845;52.042;6.838;2022-12-18T09:23:38;66244.69;;;-4.93;100.00
24746;BME280;12845;52.042;6.838;2022-12-18T09:26:04;66252.53;;;-4.86;100.00
24746;BME280;12845;52.042;6.838;2022-12-18T09:28:29;66254.06;;;-4.80;100.00
24746;BME280;12845;52.042;6.838;2022-12-18T09:30:55;66267.63;;;-4.72;100.00
24746;BME280;12845;52.042;6.838;2022-12-18T09:33:21;66276.03;;;-4.64;100.00
24746;BME280;12845;52.042;6.838;2022-12-18T09:35:46;66276.84;;;-4.54;100.00
24746;BME280;12845;52.042;6.838;2022-12-18T09:38:17;66292.13;;;-4.45;100.00
24746;BME280;12845;52.042;6.838;2022-12-18T09:40:45;66308.13;;;-4.33;100.00
24746;BME280;12845;52.042;6.838;2022-12-18T09:43:39;66318.97;;;-4.20;100.00
24746;BME280;12845;52.042;6.838;2022-12-18T09:46:06;66337.25;;;-4.06;100.00
24746;BME280;12845;52.042;6.838;2022-12-18T09:48:38;66344.75;;;-3.97;100.00
24746;BME280;12845;52.042;6.838;2022-12-18T09:51:28;66358.53;;;-3.87;100.00
24746;BME280;12845;52.042;6.838;2022-12-18T09:54:05;66370.88;;;-3.75;100.00
24746;BME280;12845;52.042;6.838;2022-12-18T09:56:40;66378.16;;;-3.69;100.00
24746;BME280;12845;52.042;6.838;2022-12-18T09:59:18;66384.31;;;-3.63;100.00
24746;BME280;12845;52.042;6.838;2022-12-18T10:01:45;66389.34;;;-3.58;100.00
24746;BME280;12845;52.042;6.838;2022-12-18T10:04:10;66394.41;;;-3.54;100.00
24746;BME280;12845;52.042;6.838;2022-12-18T10:07:01;66399.09;;;-3.47;100.00
24746;BME280;12845;52.042;6.838;2022-12-18T10:12:25;66409.31;;;-3.43;100.00
24746;BME280;12845;52.042;6.838;2022-12-18T10:15:10;66418.09;;;-3.37;100.00
24746;BME280;12845;52.042;6.838;2022-12-18T10:17:44;66410.69;;;-3.32;100.00
24746;BME280;12845;52.042;6.838;2022-12-18T10:20:21;66427.25;;;-3.26;100.00
24746;BME280;12845;52.042;6.838;2022-12-18T10:22:53;66428.78;;;-3.20;100.00
24746;BME280;12845;52.042;6.838;2022-12-18T10:25:26;66439.25;;;-3.13;100.00
24746;BME280;12845;52.042;6.838;2022-12-18T10:28:03;66443.38;;;-3.07;100.00
24746;BME280;12845;52.042;6.838;2022-12-18T10:30:32;66449.53;;;-3.01;100.00
24746;BME280;12845;52.042;6.838;2022-12-18T10:33:04;66456.59;;;-2.97;100.00
24746;BME280;12845;52.042;6.838;2022-12-18T10:35:29;66462.78;;;-2.91;100.00
24746;BME280;12845;52.042;6.838;2022-12-18T10:38:20;66468.38;;;-2.86;100.00
24746;BME280;12845;52.042;6.838;2022-12-18T10:43:23;66477.56;;;-2.76;100.00
24746;BME280;12845;52.042;6.838;2022-12-18T10:48:23;66492.50;;;-2.64;100.00
24746;BME280;12845;52.042;6.838;2022-12-18T10:50:50;66493.25;;;-2.61;99.77
24746;BME280;12845;52.042;6.838;2022-12-18T10:55:48;66504.28;;;-2.54;98.76
24746;BME280;12845;52.042;6.838;2022-12-18T10:58:23;66506.16;;;-2.50;98.77
24746;BME280;12845;52.042;6.838;2022-12-18T11:01:11;66511.00;;;-2.47;98.24
24746;BME280;12845;52.042;6.838;2022-12-18T11:03:59;66510.63;;;-2.45;97.49
24746;BME280;12845;52.042;6.838;2022-12-18T11:09:05;66516.25;;;-2.40;97.38
24746;BME280;12845;52.042;6.838;2022-12-18T11:11:32;66523.91;;;-2.36;97.24
24746;BME280;12845;52.042;6.838;2022-12-18T11:14:06;66524.69;;;-2.33;96.90
24746;BME280;12845;52.042;6.838;2022-12-18T11:16:44;66530.09;;;-2.30;96.13
24746;BME280;12845;52.042;6.838;2022-12-18T11:26:55;66537.03;;;-2.21;95.59
24746;BME280;12845;52.042;6.838;2022-12-18T11:29:32;66543.53;;;-2.18;95.72
24746;BME280;12845;52.042;6.838;2022-12-18T11:37:29;66544.72;;;-2.10;94.87
24746;BME280;12845;52.042;6.838;2022-12-18T11:39:59;66559.06;;;-2.06;95.10
24746;BME280;12845;52.042;6.838;2022-12-18T11:42:44;66558.88;;;-2.01;93.97
24746;BME280;12845;52.042;6.838;2022-12-18T11:50:32;66574.59;;;-1.87;92.77
24746;BME280;12845;52.042;6.838;2022-12-18T11:52:58;66577.41;;;-1.85;92.09
24746;BME280;12845;52.042;6.838;2022-12-18T12:09:05;66599.28;;;-1.65;91.18
24746;BME280;12845;52.042;6.838;2022-12-18T12:19:38;66609.56;;;-1.60;90.47
24746;BME280;12845;52.042;6.838;2022-12-18T12:25:21;66607.16;;;-1.57;89.71
24746;BME280;12845;52.042;6.838;2022-12-18T12:33:45;66613.91;;;-1.51;89.66
24746;BME280;12845;52.042;6.838;2022-12-18T12:36:35;66617.25;;;-1.48;89.66
24746;BME280;12845;52.042;6.838;2022-12-18T12:41:32;66628.09;;;-1.43;89.32
24746;BME280;12845;52.042;6.838;2022-12-18T12:49:20;66629.63;;;-1.37;88.79
24746;BME280;12845;52.042;6.838;2022-12-18T12:51:56;66630.16;;;-1.37;89.47
24746;BME280;12845;52.042;6.838;2022-12-18T12:54:24;66632.97;;;-1.34;88.13
24746;BME280;12845;52.042;6.838;2022-12-18T13:04:59;66626.03;;;-1.43;88.95
24746;BME280;12845;52.042;6.838;2022-12-18T13:07:31;66629.22;;;-1.42;88.36
24746;BME280;12845;52.042;6.838;2022-12-18T13:15:43;66632.97;;;-1.34;89.01
24746;BME280;12845;52.042;6.838;2022-12-18T13:20:37;66634.66;;;-1.32;88.62
24746;BME280;12845;52.042;6.838;2022-12-18T13:25:51;66643.25;;;-1.29;88.40
24746;BME280;12845;52.042;6.838;2022-12-18T13:28:21;66639.72;;;-1.28;88.42
24746;BME280;12845;52.042;6.838;2022-12-18T13:30:53;66642.31;;;-1.28;88.42
24746;BME280;12845;52.042;6.838;2022-12-18T13:40:58;66649.81;;;-1.19;88.15
24746;BME280;12845;52.042;6.838;2022-12-18T13:43:29;66648.16;;;-1.20;87.77
24746;BME280;12845;52.042;6.838;2022-12-18T13:48:25;66650.75;;;-1.20;88.20
24746;BME280;12845;52.042;6.838;2022-12-18T13:51:07;66645.34;;;-1.23;88.36
24746;BME280;12845;52.042;6.838;2022-12-18T13:53:44;66644.19;;;-1.24;88.10
24746;BME280;12845;52.042;6.838;2022-12-18T13:56:15;66642.53;;;-1.25;88.66
24746;BME280;12845;52.042;6.838;2022-12-18T14:01:21;66643.09;;;-1.25;88.69
24746;BME280;12845;52.042;6.838;2022-12-18T14:03:47;66644.59;;;-1.26;89.29
24746;BME280;12845;52.042;6.838;2022-12-18T14:08:39;66639.72;;;-1.28;89.95
24746;BME280;12845;52.042;6.838;2022-12-18T14:11:06;66639.72;;;-1.28;90.03
24746;BME280;12845;52.042;6.838;2022-12-18T14:13:35;66641.78;;;-1.28;89.63
24746;BME280;12845;52.042;6.838;2022-12-18T14:16:04;66638.03;;;-1.29;90.00
24746;BME280;12845;52.042;6.838;2022-12-18T14:18:45;66631.69;;;-1.30;90.05
24746;BME280;12845;52.042;6.838;2022-12-18T14:21:24;66636.34;;;-1.31;90.24
24746;BME280;12845;52.042;6.838;2022-12-18T14:24:13;66635.78;;;-1.31;90.15
24746;BME280;12845;52.042;6.838;2022-12-18T14:26:40;66632.44;;;-1.34;90.19
24746;BME280;12845;52.042;6.838;2022-12-18T14:29:18;66634.09;;;-1.33;89.94
24746;BME280;12845;52.042;6.838;2022-12-18T14:31:44;66637.47;;;-1.30;90.44
24746;BME280;12845;52.042;6.838;2022-12-18T14:34:16;66638.97;;;-1.31;89.90
24746;BME280;12845;52.042;6.838;2022-12-18T14:36:51;66637.47;;;-1.30;89.69
24746;BME280;12845;52.042;6.838;2022-12-18T14:39:18;66638.59;;;-1.29;90.19
24746;BME280;12845;52.042;6.838;2022-12-18T14:41:43;66633.38;;;-1.29;90.02
24746;BME280;12845;52.042;6.838;2022-12-18T14:44:12;66640.66;;;-1.29;90.46
24746;BME280;12845;52.042;6.838;2022-12-18T14:46:44;66636.91;;;-1.30;89.98
24746;BME280;12845;52.042;6.838;2022-12-18T14:49:31;66626.81;;;-1.40;89.96
24746;BME280;12845;52.042;6.838;2022-12-18T14:51:59;66629.63;;;-1.37;90.99
24746;BME280;12845;52.042;6.838;2022-12-18T14:54:26;66633.53;;;-1.33;90.67
24746;BME280;12845;52.042;6.838;2022-12-18T15:07:24;66637.84;;;-1.32;91.43
24746;BME280;12845;52.042;6.838;2022-12-18T15:10:12;66630.72;;;-1.36;91.35
24746;BME280;12845;52.042;6.838;2022-12-18T15:17:59;66628.31;;;-1.41;92.10
24746;BME280;12845;52.042;6.838;2022-12-18T15:22:50;66626.59;;;-1.42;92.95
24746;BME280;12845;52.042;6.838;2022-12-18T15:25:32;66621.19;;;-1.45;92.77
24746;BME280;12845;52.042;6.838;2022-12-18T15:30:25;66618.94;;;-1.47;93.76
24746;BME280;12845;52.042;6.838;2022-12-18T15:42:42;66618.38;;;-1.47;94.44
24746;BME280;12845;52.042;6.838;2022-12-18T15:45:26;66621.00;;;-1.47;94.73
24746;BME280;12845;52.042;6.838;2022-12-18T15:47:52;66616.69;;;-1.49;94.87
24746;BME280;12845;52.042;6.838;2022-12-18T15:52:45;66619.88;;;-1.48;95.08